French Woods, New York
Current Conditions -  °F | °C
As of 3:55 PM on Thursday 27 Nov 2014 (Local Time) from KMSV Reporting Station
Overcast Overcast  
Wind Chill: 20°   Ceiling: 1600
Heat Index: 28°   Visibility: 10mi
Dew Point: 27°   Wind: 8mph
Humidity: 93%   Direction: 280°W
Pressure: 29.96"   Gusts: NA
Location:  41.9099°N, 75.1815°W
Report Text: KMSV 272055Z AUTO 28007KT 10SM BKN016 OVC022 M02/M03 A2996 RMK AO1 52007
Loading
Personal Weather Stations






























Interactive Weather Map New forecast layout! Learn more

10-Day Weather Forecast

Advertisements
Track Severe Weather on mobile